sensor_id;sensor_type;location;lat;lon;timestamp;pressure;altitude;pressure_sealevel;temperature;humidity
47240;BME280;32978;53.586;10.052;2023-01-30T00:01:03;100970.91;;;2.48;100.00
47240;BME280;32978;53.586;10.052;2023-01-30T00:06:00;100962.88;;;2.53;100.00
47240;BME280;32978;53.586;10.052;2023-01-30T00:10:56;100920.78;;;2.57;100.00
47240;BME280;32978;53.586;10.052;2023-01-30T00:15:58;100931.59;;;2.57;100.00
47240;BME280;32978;53.586;10.052;2023-01-30T00:20:59;100951.56;;;2.56;100.00
47240;BME280;32978;53.586;10.052;2023-01-30T00:25:56;100941.88;;;2.60;100.00
47240;BME280;32978;53.586;10.052;2023-01-30T00:30:54;100893.84;;;2.62;100.00
47240;BME280;32978;53.586;10.052;2023-01-30T00:35:52;100880.63;;;2.66;100.00
47240;BME280;32978;53.586;10.052;2023-01-30T00:40:49;100872.84;;;2.74;100.00
47240;BME280;32978;53.586;10.052;2023-01-30T00:45:46;100855.56;;;2.76;100.00
47240;BME280;32978;53.586;10.052;2023-01-30T00:51:02;100849.69;;;2.84;100.00
47240;BME280;32978;53.586;10.052;2023-01-30T00:55:59;100830.25;;;2.92;100.00
47240;BME280;32978;53.586;10.052;2023-01-30T01:00:55;100809.19;;;2.94;100.00
47240;BME280;32978;53.586;10.052;2023-01-30T01:05:52;100800.84;;;3.01;100.00
47240;BME280;32978;53.586;10.052;2023-01-30T01:10:48;100788.16;;;3.06;100.00
47240;BME280;32978;53.586;10.052;2023-01-30T01:15:45;100796.81;;;3.08;100.00
47240;BME280;32978;53.586;10.052;2023-01-30T01:20:41;100782.00;;;3.16;100.00
47240;BME280;32978;53.586;10.052;2023-01-30T01:25:38;100765.50;;;3.12;100.00
47240;BME280;32978;53.586;10.052;2023-01-30T01:30:34;100755.78;;;3.16;100.00
47240;BME280;32978;53.586;10.052;2023-01-30T01:35:30;100753.91;;;3.22;100.00
47240;BME280;32978;53.586;10.052;2023-01-30T01:40:27;100734.19;;;3.22;100.00
47240;BME280;32978;53.586;10.052;2023-01-30T01:45:42;100730.94;;;3.25;100.00
47240;BME280;32978;53.586;10.052;2023-01-30T01:50:58;100718.50;;;3.29;100.00
47240;BME280;32978;53.586;10.052;2023-01-30T01:55:58;100705.53;;;3.26;100.00
47240;BME280;32978;53.586;10.052;2023-01-30T02:00:58;100705.00;;;3.29;100.00
47240;BME280;32978;53.586;10.052;2023-01-30T02:05:57;100706.63;;;3.30;100.00
47240;BME280;32978;53.586;10.052;2023-01-30T02:11:23;100704.47;;;3.37;100.00
47240;BME280;32978;53.586;10.052;2023-01-30T02:16:20;100694.22;;;3.39;100.00
47240;BME280;32978;53.586;10.052;2023-01-30T02:21:33;100685.81;;;3.41;100.00
47240;BME280;32978;53.586;10.052;2023-01-30T02:32:28;100662.81;;;3.43;100.00
47240;BME280;32978;53.586;10.052;2023-01-30T02:37:53;100659.59;;;3.46;100.00
47240;BME280;32978;53.586;10.052;2023-01-30T02:48:29;100650.91;;;3.59;100.00
47240;BME280;32978;53.586;10.052;2023-01-30T02:53:33;100646.06;;;3.67;100.00
47240;BME280;32978;53.586;10.052;2023-01-30T02:58:35;100631.44;;;3.68;100.00
47240;BME280;32978;53.586;10.052;2023-01-30T03:14:08;100606.53;;;3.86;100.00
47240;BME280;32978;53.586;10.052;2023-01-30T03:19:11;100600.56;;;3.89;100.00
47240;BME280;32978;53.586;10.052;2023-01-30T03:24:08;100592.41;;;3.94;100.00
47240;BME280;32978;53.586;10.052;2023-01-30T03:29:05;100574.00;;;3.96;100.00
47240;BME280;32978;53.586;10.052;2023-01-30T03:34:01;100572.91;;;4.03;100.00
47240;BME280;32978;53.586;10.052;2023-01-30T03:38:58;100576.16;;;4.05;100.00
47240;BME280;32978;53.586;10.052;2023-01-30T03:43:54;100576.16;;;4.05;100.00
47240;BME280;32978;53.586;10.052;2023-01-30T03:48:51;100542.59;;;4.11;100.00
47240;BME280;32978;53.586;10.052;2023-01-30T03:53:47;100544.72;;;4.14;100.00
47240;BME280;32978;53.586;10.052;2023-01-30T03:58:44;100553.91;;;4.18;100.00
47240;BME280;32978;53.586;10.052;2023-01-30T04:03:40;100557.13;;;4.20;100.00
47240;BME280;32978;53.586;10.052;2023-01-30T04:08:37;100534.38;;;4.26;100.00
47240;BME280;32978;53.586;10.052;2023-01-30T04:13:33;100511.09;;;4.25;100.00
47240;BME280;32978;53.586;10.052;2023-01-30T04:18:29;100545.69;;;4.33;100.00
47240;BME280;32978;53.586;10.052;2023-01-30T04:23:26;100542.94;;;4.38;100.00
47240;BME280;32978;53.586;10.052;2023-01-30T04:28:22;100580.78;;;4.49;100.00
47240;BME280;32978;53.586;10.052;2023-01-30T04:33:19;100564.59;;;4.43;100.00
47240;BME280;32978;53.586;10.052;2023-01-30T04:38:15;100546.19;;;4.40;100.00
47240;BME280;32978;53.586;10.052;2023-01-30T04:43:12;100563.56;;;4.34;100.00
47240;BME280;32978;53.586;10.052;2023-01-30T04:48:08;100562.22;;;4.32;100.00
47240;BME280;32978;53.586;10.052;2023-01-30T04:53:05;100553.28;;;4.31;100.00
47240;BME280;32978;53.586;10.052;2023-01-30T04:58:02;100537.28;;;4.35;100.00
47240;BME280;32978;53.586;10.052;2023-01-30T05:02:58;100538.63;;;4.37;100.00
47240;BME280;32978;53.586;10.052;2023-01-30T05:07:54;100546.44;;;4.44;100.00
47240;BME280;32978;53.586;10.052;2023-01-30T05:12:51;100552.66;;;4.45;100.00
47240;BME280;32978;53.586;10.052;2023-01-30T05:17:47;100543.47;;;4.40;100.00
47240;BME280;32978;53.586;10.052;2023-01-30T05:22:44;100541.34;;;4.37;100.00
47240;BME280;32978;53.586;10.052;2023-01-30T05:27:40;100540.28;;;4.33;100.00
47240;BME280;32978;53.586;10.052;2023-01-30T05:32:37;100542.44;;;4.31;100.00
47240;BME280;32978;53.586;10.052;2023-01-30T05:37:33;100526.19;;;4.31;100.00
47240;BME280;32978;53.586;10.052;2023-01-30T05:42:30;100532.75;;;4.25;100.00
47240;BME280;32978;53.586;10.052;2023-01-30T05:47:26;100534.94;;;4.23;100.00
47240;BME280;32978;53.586;10.052;2023-01-30T05:52:23;100531.44;;;4.17;100.00
47240;BME280;32978;53.586;10.052;2023-01-30T05:57:19;100530.13;;;4.10;100.00
47240;BME280;32978;53.586;10.052;2023-01-30T06:02:15;100519.06;;;4.06;100.00
47240;BME280;32978;53.586;10.052;2023-01-30T06:07:13;100515.91;;;3.89;100.00
47240;BME280;32978;53.586;10.052;2023-01-30T06:12:09;100512.94;;;3.90;100.00
47240;BME280;32978;53.586;10.052;2023-01-30T06:17:06;100510.22;;;3.90;100.00
47240;BME280;32978;53.586;10.052;2023-01-30T06:22:02;100507.56;;;3.75;100.00
47240;BME280;32978;53.586;10.052;2023-01-30T06:26:59;100533.00;;;3.69;100.00
47240;BME280;32978;53.586;10.052;2023-01-30T06:31:55;100530.34;;;3.58;100.00
47240;BME280;32978;53.586;10.052;2023-01-30T06:36:51;100528.75;;;3.47;100.00
47240;BME280;32978;53.586;10.052;2023-01-30T06:41:48;100538.22;;;3.45;100.00
47240;BME280;32978;53.586;10.052;2023-01-30T06:46:44;100546.59;;;3.43;100.00
47240;BME280;32978;53.586;10.052;2023-01-30T06:51:41;100553.63;;;3.49;100.00
47240;BME280;32978;53.586;10.052;2023-01-30T06:56:37;100542.81;;;3.49;100.00
47240;BME280;32978;53.586;10.052;2023-01-30T07:01:34;100548.22;;;3.49;100.00
47240;BME280;32978;53.586;10.052;2023-01-30T07:06:30;100552.81;;;3.49;100.00
47240;BME280;32978;53.586;10.052;2023-01-30T07:11:27;100554.19;;;3.46;100.00
47240;BME280;32978;53.586;10.052;2023-01-30T07:16:23;100550.94;;;3.44;100.00
47240;BME280;32978;53.586;10.052;2023-01-30T07:21:24;100547.66;;;3.57;100.00
47240;BME280;32978;53.586;10.052;2023-01-30T07:26:22;100535.22;;;3.56;100.00
47240;BME280;32978;53.586;10.052;2023-01-30T07:31:20;100529.03;;;3.51;100.00
47240;BME280;32978;53.586;10.052;2023-01-30T07:36:16;100534.13;;;3.63;100.00
47240;BME280;32978;53.586;10.052;2023-01-30T07:41:12;100530.38;;;3.53;100.00
47240;BME280;32978;53.586;10.052;2023-01-30T07:46:09;100526.56;;;3.59;100.00
47240;BME280;32978;53.586;10.052;2023-01-30T07:51:05;100546.28;;;3.65;100.00
47240;BME280;32978;53.586;10.052;2023-01-30T07:56:09;100552.72;;;3.79;100.00
47240;BME280;32978;53.586;10.052;2023-01-30T08:01:05;100528.66;;;3.83;100.00
47240;BME280;32978;53.586;10.052;2023-01-30T08:06:02;100544.25;;;4.02;100.00
47240;BME280;32978;53.586;10.052;2023-01-30T08:10:58;100544.53;;;4.00;100.00
47240;BME280;32978;53.586;10.052;2023-01-30T08:15:58;100537.78;;;3.97;100.00
47240;BME280;32978;53.586;10.052;2023-01-30T08:21:03;100509.63;;;3.98;100.00
47240;BME280;32978;53.586;10.052;2023-01-30T08:26:02;100541.53;;;3.96;100.00
47240;BME280;32978;53.586;10.052;2023-01-30T08:30:59;100539.97;;;3.85;100.00
47240;BME280;32978;53.586;10.052;2023-01-30T08:35:55;100539.88;;;4.06;100.00
47240;BME280;32978;53.586;10.052;2023-01-30T08:40:52;100523.63;;;4.16;100.00
47240;BME280;32978;53.586;10.052;2023-01-30T08:45:52;100520.88;;;4.21;100.00
47240;BME280;32978;53.586;10.052;2023-01-30T08:50:52;100526.25;;;4.26;100.00
47240;BME280;32978;53.586;10.052;2023-01-30T08:55:52;100535.44;;;4.30;100.00
47240;BME280;32978;53.586;10.052;2023-01-30T09:00:49;100530.50;;;4.37;100.00
47240;BME280;32978;53.586;10.052;2023-01-30T09:05:45;100528.75;;;4.57;100.00
47240;BME280;32978;53.586;10.052;2023-01-30T09:10:42;100532.19;;;4.68;100.00
47240;BME280;32978;53.586;10.052;2023-01-30T09:15:42;100512.97;;;4.64;100.00
47240;BME280;32978;53.586;10.052;2023-01-30T09:20:39;100515.72;;;4.59;100.00
47240;BME280;32978;53.586;10.052;2023-01-30T09:25:35;100523.25;;;4.67;100.00
47240;BME280;32978;53.586;10.052;2023-01-30T09:30:33;100517.28;;;4.70;100.00
47240;BME280;32978;53.586;10.052;2023-01-30T09:35:29;100490.47;;;4.69;100.00
47240;BME280;32978;53.586;10.052;2023-01-30T09:40:27;100491.00;;;4.71;100.00
47240;BME280;32978;53.586;10.052;2023-01-30T09:45:57;100485.41;;;4.91;100.00
47240;BME280;32978;53.586;10.052;2023-01-30T09:51:13;100489.91;;;5.01;100.00
47240;BME280;32978;53.586;10.052;2023-01-30T09:56:13;100484.44;;;5.06;100.00
47240;BME280;32978;53.586;10.052;2023-01-30T10:01:16;100486.34;;;4.76;100.00
47240;BME280;32978;53.586;10.052;2023-01-30T10:06:16;100519.09;;;4.40;100.00
47240;BME280;32978;53.586;10.052;2023-01-30T10:21:46;100514.19;;;3.48;100.00
47240;BME280;32978;53.586;10.052;2023-01-30T10:26:45;100514.22;;;3.28;100.00
47240;BME280;32978;53.586;10.052;2023-01-30T10:31:46;100489.09;;;3.22;100.00
47240;BME280;32978;53.586;10.052;2023-01-30T10:42:03;100477.44;;;3.42;100.00
47240;BME280;32978;53.586;10.052;2023-01-30T10:47:32;100469.66;;;3.90;100.00
47240;BME280;32978;53.586;10.052;2023-01-30T10:53:45;100459.22;;;4.13;100.00
47240;BME280;32978;53.586;10.052;2023-01-30T10:58:34;100468.53;;;3.91;100.00
47240;BME280;32978;53.586;10.052;2023-01-30T11:03:38;100484.84;;;3.81;100.00
47240;BME280;32978;53.586;10.052;2023-01-30T11:08:36;100565.53;;;3.53;100.00
47240;BME280;32978;53.586;10.052;2023-01-30T11:13:33;100543.41;;;3.10;100.00
47240;BME280;32978;53.586;10.052;2023-01-30T11:18:30;100532.09;;;2.83;100.00
47240;BME280;32978;53.586;10.052;2023-01-30T11:23:46;100546.13;;;2.85;100.00
47240;BME280;32978;53.586;10.052;2023-01-30T11:28:43;100550.47;;;2.96;100.00
47240;BME280;32978;53.586;10.052;2023-01-30T11:33:44;100569.91;;;2.98;100.00
47240;BME280;32978;53.586;10.052;2023-01-30T11:38:55;100536.94;;;3.01;100.00
47240;BME280;32978;53.586;10.052;2023-01-30T11:44:01;100545.59;;;3.13;100.00
47240;BME280;32978;53.586;10.052;2023-01-30T11:49:01;100537.44;;;3.39;100.00
47240;BME280;32978;53.586;10.052;2023-01-30T11:54:27;100522.72;;;3.71;100.00
47240;BME280;32978;53.586;10.052;2023-01-30T11:59:34;100517.75;;;3.98;100.00
47240;BME280;32978;53.586;10.052;2023-01-30T12:04:34;100496.66;;;3.95;100.00
47240;BME280;32978;53.586;10.052;2023-01-30T12:09:35;100473.25;;;4.15;100.00
47240;BME280;32978;53.586;10.052;2023-01-30T12:14:40;100472.00;;;4.41;100.00
47240;BME280;32978;53.586;10.052;2023-01-30T12:30:42;100449.03;;;3.99;100.00
47240;BME280;32978;53.586;10.052;2023-01-30T12:35:51;100517.31;;;3.71;100.00
47240;BME280;32978;53.586;10.052;2023-01-30T12:41:00;100528.81;;;3.22;100.00
47240;BME280;32978;53.586;10.052;2023-01-30T12:56:37;100530.13;;;4.10;100.00
47240;BME280;32978;53.586;10.052;2023-01-30T13:02:08;100535.09;;;4.76;100.00
47240;BME280;32978;53.586;10.052;2023-01-30T13:07:29;100516.03;;;4.87;100.00
47240;BME280;32978;53.586;10.052;2023-01-30T13:23:21;100504.19;;;4.48;100.00
47240;BME280;32978;53.586;10.052;2023-01-30T13:28:27;100512.47;;;4.62;100.00
47240;BME280;32978;53.586;10.052;2023-01-30T13:33:36;100512.09;;;4.74;100.00
47240;BME280;32978;53.586;10.052;2023-01-30T13:38:39;100509.19;;;4.65;100.00
47240;BME280;32978;53.586;10.052;2023-01-30T13:43:39;100536.97;;;4.41;100.00
47240;BME280;32978;53.586;10.052;2023-01-30T14:09:28;100615.97;;;3.89;100.00
47240;BME280;32978;53.586;10.052;2023-01-30T14:14:27;100634.53;;;4.21;100.00
47240;BME280;32978;53.586;10.052;2023-01-30T14:19:38;100634.97;;;4.38;100.00
47240;BME280;32978;53.586;10.052;2023-01-30T14:24:35;100648.97;;;4.56;100.00
47240;BME280;32978;53.586;10.052;2023-01-30T14:29:52;100661.16;;;4.58;100.00
47240;BME280;32978;53.586;10.052;2023-01-30T14:40:36;100684.69;;;4.63;100.00
47240;BME280;32978;53.586;10.052;2023-01-30T14:50:46;100706.81;;;4.80;100.00
47240;BME280;32978;53.586;10.052;2023-01-30T14:55:43;100726.31;;;4.77;100.00
47240;BME280;32978;53.586;10.052;2023-01-30T15:00:39;100740.94;;;4.81;100.00
47240;BME280;32978;53.586;10.052;2023-01-30T15:05:40;100745.25;;;4.88;100.00
47240;BME280;32978;53.586;10.052;2023-01-30T15:11:02;100771.84;;;4.80;100.00
47240;BME280;32978;53.586;10.052;2023-01-30T15:31:57;100817.34;;;4.78;100.00
47240;BME280;32978;53.586;10.052;2023-01-30T15:36:54;100853.63;;;4.88;100.00
47240;BME280;32978;53.586;10.052;2023-01-30T15:41:52;100866.09;;;4.83;100.00
47240;BME280;32978;53.586;10.052;2023-01-30T15:52:12;100875.84;;;4.84;100.00
47240;BME280;32978;53.586;10.052;2023-01-30T15:57:11;100906.19;;;4.87;100.00
47240;BME280;32978;53.586;10.052;2023-01-30T16:02:13;100921.09;;;4.79;100.00
47240;BME280;32978;53.586;10.052;2023-01-30T16:07:16;100930.59;;;4.71;100.00
47240;BME280;32978;53.586;10.052;2023-01-30T16:12:28;100940.88;;;4.74;100.00
47240;BME280;32978;53.586;10.052;2023-01-30T16:17:27;100951.44;;;4.71;100.00
47240;BME280;32978;53.586;10.052;2023-01-30T16:22:28;100949.53;;;4.66;100.00
47240;BME280;32978;53.586;10.052;2023-01-30T16:27:33;100988.00;;;4.73;100.00
47240;BME280;32978;53.586;10.052;2023-01-30T16:32:31;100981.53;;;4.69;100.00
47240;BME280;32978;53.586;10.052;2023-01-30T16:37:29;100982.63;;;4.53;100.00
47240;BME280;32978;53.586;10.052;2023-01-30T16:42:27;101008.59;;;4.49;100.00
47240;BME280;32978;53.586;10.052;2023-01-30T16:47:26;101018.88;;;4.41;100.00
47240;BME280;32978;53.586;10.052;2023-01-30T16:57:29;101048.41;;;4.48;100.00
47240;BME280;32978;53.586;10.052;2023-01-30T17:02:36;101071.38;;;4.30;100.00
47240;BME280;32978;53.586;10.052;2023-01-30T17:07:36;101081.91;;;4.27;100.00
47240;BME280;32978;53.586;10.052;2023-01-30T17:12:37;101096.81;;;4.29;100.00
47240;BME280;32978;53.586;10.052;2023-01-30T17:17:40;101113.59;;;4.26;100.00
47240;BME280;32978;53.586;10.052;2023-01-30T17:22:38;101118.50;;;4.34;100.00
47240;BME280;32978;53.586;10.052;2023-01-30T17:27:37;101126.63;;;4.34;100.00
47240;BME280;32978;53.586;10.052;2023-01-30T17:32:33;101140.72;;;4.36;100.00
47240;BME280;32978;53.586;10.052;2023-01-30T17:37:29;101142.31;;;4.32;100.00
47240;BME280;32978;53.586;10.052;2023-01-30T17:42:26;101148.53;;;4.28;100.00
47240;BME280;32978;53.586;10.052;2023-01-30T17:47:22;101153.94;;;4.22;100.00
47240;BME280;32978;53.586;10.052;2023-01-30T17:52:20;101159.59;;;4.21;100.00
47240;BME280;32978;53.586;10.052;2023-01-30T17:57:16;101165.22;;;4.04;100.00
47240;BME280;32978;53.586;10.052;2023-01-30T18:02:13;101164.63;;;3.97;100.00
47240;BME280;32978;53.586;10.052;2023-01-30T18:07:12;101175.72;;;4.00;100.00
47240;BME280;32978;53.586;10.052;2023-01-30T18:12:09;101180.59;;;4.04;100.00
47240;BME280;32978;53.586;10.052;2023-01-30T18:17:05;101180.59;;;4.04;100.00
47240;BME280;32978;53.586;10.052;2023-01-30T18:22:02;101187.31;;;3.91;100.00
47240;BME280;32978;53.586;10.052;2023-01-30T18:26:58;101191.84;;;3.85;100.00
47240;BME280;32978;53.586;10.052;2023-01-30T18:31:57;101196.44;;;3.79;100.00
47240;BME280;32978;53.586;10.052;2023-01-30T18:37:00;101215.88;;;3.71;100.00
47240;BME280;32978;53.586;10.052;2023-01-30T18:41:56;101231.78;;;3.68;100.00
47240;BME280;32978;53.586;10.052;2023-01-30T18:46:52;101233.88;;;3.55;100.00
47240;BME280;32978;53.586;10.052;2023-01-30T18:51:49;101235.41;;;3.46;100.00
47240;BME280;32978;53.586;10.052;2023-01-30T18:56:45;101244.59;;;3.50;100.00
47240;BME280;32978;53.586;10.052;2023-01-30T19:01:42;101271.56;;;3.40;100.00
47240;BME280;32978;53.586;10.052;2023-01-30T19:06:41;101260.13;;;3.60;100.00
47240;BME280;32978;53.586;10.052;2023-01-30T19:11:38;101284.88;;;3.47;100.00
47240;BME280;32978;53.586;10.052;2023-01-30T19:16:53;101273.25;;;3.46;100.00
47240;BME280;32978;53.586;10.052;2023-01-30T19:21:49;101294.88;;;3.46;100.00
47240;BME280;32978;53.586;10.052;2023-01-30T19:26:47;101271.31;;;3.42;100.00
47240;BME280;32978;53.586;10.052;2023-01-30T19:31:44;101301.81;;;3.37;100.00
47240;BME280;32978;53.586;10.052;2023-01-30T19:36:42;101324.78;;;3.34;100.00
47240;BME280;32978;53.586;10.052;2023-01-30T19:41:39;101335.66;;;3.17;100.00
47240;BME280;32978;53.586;10.052;2023-01-30T19:46:35;101343.91;;;3.06;100.00
47240;BME280;32978;53.586;10.052;2023-01-30T19:51:33;101360.50;;;3.14;100.00
47240;BME280;32978;53.586;10.052;2023-01-30T19:56:30;101368.66;;;3.20;100.00
47240;BME280;32978;53.586;10.052;2023-01-30T20:01:29;101378.59;;;3.14;100.00
47240;BME280;32978;53.586;10.052;2023-01-30T20:06:29;101378.25;;;3.10;100.00
47240;BME280;32978;53.586;10.052;2023-01-30T20:11:27;101422.00;;;3.07;100.00
47240;BME280;32978;53.586;10.052;2023-01-30T20:16:25;101413.34;;;3.05;100.00
47240;BME280;32978;53.586;10.052;2023-01-30T20:21:23;101422.88;;;2.91;100.00
47240;BME280;32978;53.586;10.052;2023-01-30T20:26:22;101421.88;;;2.97;100.00
47240;BME280;32978;53.586;10.052;2023-01-30T20:31:21;101428.84;;;2.93;100.00
47240;BME280;32978;53.586;10.052;2023-01-30T20:36:18;101428.78;;;2.88;100.00
47240;BME280;32978;53.586;10.052;2023-01-30T20:41:19;101446.75;;;2.99;100.00
47240;BME280;32978;53.586;10.052;2023-01-30T20:46:19;101447.75;;;2.93;100.00
47240;BME280;32978;53.586;10.052;2023-01-30T20:51:22;101456.78;;;2.82;100.00
47240;BME280;32978;53.586;10.052;2023-01-30T20:56:20;101463.69;;;3.11;100.00
47240;BME280;32978;53.586;10.052;2023-01-30T21:01:19;101470.88;;;3.23;100.00
47240;BME280;32978;53.586;10.052;2023-01-30T21:06:18;101481.72;;;3.28;100.00
47240;BME280;32978;53.586;10.052;2023-01-30T21:11:34;101460.69;;;3.30;100.00
47240;BME280;32978;53.586;10.052;2023-01-30T21:16:32;101487.50;;;3.14;100.00
47240;BME280;32978;53.586;10.052;2023-01-30T21:21:35;101464.09;;;3.03;100.00
47240;BME280;32978;53.586;10.052;2023-01-30T21:26:34;101478.03;;;2.95;100.00
47240;BME280;32978;53.586;10.052;2023-01-30T21:31:31;101485.41;;;2.83;100.00
47240;BME280;32978;53.586;10.052;2023-01-30T21:36:29;101487.53;;;2.81;100.00
47240;BME280;32978;53.586;10.052;2023-01-30T21:41:29;101500.00;;;2.82;100.00
47240;BME280;32978;53.586;10.052;2023-01-30T21:46:46;101501.63;;;2.66;100.00
47240;BME280;32978;53.586;10.052;2023-01-30T21:51:45;101515.28;;;2.59;100.00
47240;BME280;32978;53.586;10.052;2023-01-30T21:56:42;101525.13;;;2.65;100.00
47240;BME280;32978;53.586;10.052;2023-01-30T22:01:40;101524.53;;;2.63;100.00
47240;BME280;32978;53.586;10.052;2023-01-30T22:06:37;101534.38;;;2.69;100.00
47240;BME280;32978;53.586;10.052;2023-01-30T22:11:35;101537.13;;;2.91;100.00
47240;BME280;32978;53.586;10.052;2023-01-30T22:16:32;101543.53;;;3.02;100.00
47240;BME280;32978;53.586;10.052;2023-01-30T22:21:32;101551.63;;;3.02;100.00
47240;BME280;32978;53.586;10.052;2023-01-30T22:26:29;101549.41;;;2.99;100.00
47240;BME280;32978;53.586;10.052;2023-01-30T22:31:30;101558.09;;;3.01;100.00
47240;BME280;32978;53.586;10.052;2023-01-30T22:36:32;101560.78;;;3.01;100.00
47240;BME280;32978;53.586;10.052;2023-01-30T22:41:33;101561.94;;;3.05;100.00
47240;BME280;32978;53.586;10.052;2023-01-30T22:46:32;101579.69;;;3.01;100.00
47240;BME280;32978;53.586;10.052;2023-01-30T22:51:32;101580.66;;;2.78;100.00
47240;BME280;32978;53.586;10.052;2023-01-30T22:56:34;101599.72;;;2.71;100.00
47240;BME280;32978;53.586;10.052;2023-01-30T23:01:32;101591.16;;;2.74;100.00
47240;BME280;32978;53.586;10.052;2023-01-30T23:06:29;101592.47;;;2.72;100.00
47240;BME280;32978;53.586;10.052;2023-01-30T23:11:35;101583.78;;;2.70;100.00
47240;BME280;32978;53.586;10.052;2023-01-30T23:16:33;101585.47;;;2.59;100.00
47240;BME280;32978;53.586;10.052;2023-01-30T23:21:36;101583.78;;;2.53;100.00
47240;BME280;32978;53.586;10.052;2023-01-30T23:26:36;101584.53;;;2.65;100.00
47240;BME280;32978;53.586;10.052;2023-01-30T23:31:34;101593.78;;;2.69;100.00
47240;BME280;32978;53.586;10.052;2023-01-30T23:36:32;101607.44;;;2.80;100.00
47240;BME280;32978;53.586;10.052;2023-01-30T23:41:31;101610.00;;;2.86;100.00
47240;BME280;32978;53.586;10.052;2023-01-30T23:46:30;101605.75;;;2.90;100.00
47240;BME280;32978;53.586;10.052;2023-01-30T23:51:29;101599.50;;;2.90;100.00
47240;BME280;32978;53.586;10.052;2023-01-30T23:56:28;101601.47;;;2.94;100.00
